Lincoln, New York
Current Conditions -  °F | °C
As of 9:54 PM on Sunday 21 Dec 2014 (Local Time) from KSYR Reporting Station
Light Snow Light Snow  
Wind Chill: 30°   Ceiling: 2500
Heat Index: 30°   Visibility: 7mi
Dew Point: 26°   Wind: 0mph
Humidity: 85%   Direction: NA
Pressure: 30.34"   Gusts: NA
Location:  43.0414°N, 75.7453°W
Report Text: KSYR 220254Z 00000KT 7SM -SN OVC025 M01/M03 A3034 RMK AO2 SNB46 SLP277 P0000 60000 T10111033 53001 $
Loading
Personal Weather Stations






























Interactive Weather Map New forecast layout! Learn more

10-Day Weather Forecast

Advertisements
Track Severe Weather on mobile